Time;durP1;ratioP1;P1;durP2;ratioP2;P2;SDS_P1;SDS_P2;PMS_P1;PMS_P2;Temp;Humidity;BMP_temperature;BMP_pressure;BME280_temperature;BME280_humidity;BME280_pressure;Samples;Min_cycle;Max_cycle;Signal;HPM_P1;HPM_P2
2023/05/21 00:01:25;;;;;;;5.53;2.42;;;17.00;95.90;;;;;;4856017;29;20046;-86
2023/05/21 00:03:51;;;;;;;6.35;2.72;;;17.00;96.00;;;;;;4846363;29;20123;-86
2023/05/21 00:06:16;;;;;;;5.03;2.50;;;17.00;96.00;;;;;;4844110;29;20054;-86
2023/05/21 00:08:42;;;;;;;5.85;2.47;;;16.90;96.00;;;;;;4850946;29;20101;-86
2023/05/21 00:11:08;;;;;;;4.95;2.78;;;16.90;96.00;;;;;;4844522;29;20443;-87
2023/05/21 00:13:34;;;;;;;5.95;2.90;;;16.90;96.00;;;;;;4851134;29;20094;-87
2023/05/21 00:15:59;;;;;;;5.45;2.40;;;17.00;95.70;;;;;;4853722;29;20061;-86
2023/05/21 00:18:25;;;;;;;4.30;2.25;;;16.90;95.80;;;;;;4846686;29;20406;-86
2023/05/21 00:20:51;;;;;;;5.75;2.90;;;16.80;95.90;;;;;;4840967;29;20089;-87
2023/05/21 00:23:18;;;;;;;4.88;2.40;;;16.80;96.10;;;;;;4848791;29;20037;-87
2023/05/21 00:25:45;;;;;;;6.13;2.97;;;16.80;96.50;;;;;;4862073;29;20513;-87
2023/05/21 00:28:11;;;;;;;4.65;2.40;;;16.80;95.80;;;;;;4857956;29;20045;-87
2023/05/21 00:30:36;;;;;;;4.72;2.35;;;16.80;95.80;;;;;;4847964;29;20041;-87
2023/05/21 00:33:02;;;;;;;7.18;3.20;;;16.80;96.00;;;;;;4858768;29;20179;-87
2023/05/21 00:35:28;;;;;;;7.47;2.95;;;16.70;95.90;;;;;;4831634;29;20133;-87
2023/05/21 00:37:54;;;;;;;6.28;2.70;;;16.70;95.80;;;;;;4849183;29;20125;-86
2023/05/21 00:40:20;;;;;;;4.90;2.60;;;16.70;95.60;;;;;;4842794;29;20038;-86
2023/05/21 00:42:46;;;;;;;5.50;2.63;;;16.70;95.80;;;;;;4842091;29;20045;-87
2023/05/21 00:45:13;;;;;;;6.72;2.75;;;16.70;96.10;;;;;;4843396;29;20042;-86
2023/05/21 00:47:40;;;;;;;6.03;2.63;;;16.60;96.10;;;;;;4843470;29;20133;-87
2023/05/21 00:50:07;;;;;;;5.47;2.78;;;16.60;96.00;;;;;;4826335;29;20050;-87
2023/05/21 00:52:40;;;;;;;4.47;2.65;;;16.60;96.00;;;;;;4839476;29;20049;-86
2023/05/21 00:55:06;;;;;;;6.47;3.20;;;16.60;96.20;;;;;;4841970;29;20070;-87
2023/05/21 00:57:32;;;;;;;7.20;3.20;;;16.60;95.80;;;;;;4841579;29;20117;-88
2023/05/21 00:59:58;;;;;;;6.25;2.70;;;16.50;95.30;;;;;;4841444;29;20201;-86
2023/05/21 01:02:24;;;;;;;5.50;2.70;;;16.50;95.30;;;;;;4841596;29;20153;-87
2023/05/21 01:04:53;;;;;;;5.60;2.90;;;16.50;95.60;;;;;;4834769;29;20171;-87
2023/05/21 01:07:19;;;;;;;5.18;2.63;;;16.50;95.90;;;;;;4855003;29;20041;-87
2023/05/21 01:09:45;;;;;;;4.05;2.40;;;16.50;96.00;;;;;;4853131;29;20479;-86
2023/05/21 01:12:12;;;;;;;4.25;2.50;;;16.50;96.00;;;;;;4853940;29;20471;-86
2023/05/21 01:14:38;;;;;;;5.78;2.83;;;16.40;96.10;;;;;;4861702;29;20087;-87
2023/05/21 01:17:05;;;;;;;6.10;3.08;;;16.40;96.20;;;;;;4850093;29;20046;-86
2023/05/21 01:19:31;;;;;;;5.80;3.00;;;16.40;96.20;;;;;;4839094;29;20117;-87
2023/05/21 01:22:03;;;;;;;5.32;2.80;;;16.40;96.10;;;;;;4838182;29;20041;-88
2023/05/21 01:24:29;;;;;;;5.00;2.75;;;16.30;96.10;;;;;;4856294;29;20054;-87
2023/05/21 01:26:55;;;;;;;5.43;3.00;;;16.30;96.20;;;;;;4848873;29;20487;-86
2023/05/21 01:29:21;;;;;;;7.30;2.85;;;16.30;96.60;;;;;;4842221;29;20060;-86
2023/05/21 01:32:22;;;;;;;4.57;2.58;;;16.30;96.30;;;;;;4845952;29;20051;-86
2023/05/21 01:35:06;;;;;;;5.25;2.60;;;16.30;96.40;;;;;;4842649;29;20076;-86
2023/05/21 01:37:56;;;;;;;6.82;3.00;;;16.30;96.30;;;;;;4848627;29;20082;-87
2023/05/21 01:40:45;;;;;;;6.05;2.58;;;16.20;96.10;;;;;;4852337;29;20053;-87
2023/05/21 01:43:13;;;;;;;6.15;2.97;;;16.20;96.50;;;;;;4875631;29;20056;-87
2023/05/21 01:45:41;;;;;;;5.15;2.75;;;16.20;96.50;;;;;;4853110;29;20049;-86
2023/05/21 01:48:09;;;;;;;5.50;3.05;;;16.20;96.40;;;;;;4843038;29;20407;-86
2023/05/21 01:50:36;;;;;;;6.38;3.00;;;16.20;96.50;;;;;;4823210;29;20050;-87
2023/05/21 01:53:04;;;;;;;4.65;2.72;;;16.20;96.60;;;;;;4845501;29;20435;-86
2023/05/21 01:55:31;;;;;;;5.97;2.85;;;16.20;96.70;;;;;;4846572;29;20046;-86
2023/05/21 01:57:58;;;;;;;4.78;2.65;;;16.20;96.90;;;;;;4860428;29;20498;-86
2023/05/21 02:00:28;;;;;;;6.00;3.10;;;16.10;96.80;;;;;;4857932;29;20055;-86
2023/05/21 02:02:54;;;;;;;7.35;3.63;;;16.10;96.90;;;;;;4846954;29;20520;-87
2023/05/21 02:05:19;;;;;;;5.47;3.00;;;16.10;96.60;;;;;;4841896;29;20054;-87
2023/05/21 02:07:46;;;;;;;5.68;3.10;;;16.10;96.70;;;;;;4849773;29;20052;-87
2023/05/21 02:10:12;;;;;;;6.75;3.08;;;16.10;96.90;;;;;;4847626;29;20132;-87
2023/05/21 02:12:37;;;;;;;6.63;3.50;;;16.00;96.80;;;;;;4845027;29;20170;-86
2023/05/21 02:15:04;;;;;;;6.82;2.88;;;16.00;96.80;;;;;;4842508;29;20182;-86
2023/05/21 02:17:32;;;;;;;8.20;3.20;;;16.00;96.80;;;;;;4854505;29;20042;-86
2023/05/21 02:20:10;;;;;;;5.20;3.05;;;16.00;96.60;;;;;;4841460;29;20057;-86
2023/05/21 02:22:44;;;;;;;5.70;2.95;;;16.00;96.60;;;;;;4856156;29;20045;-86
2023/05/21 02:25:11;;;;;;;5.93;3.20;;;16.00;96.90;;;;;;4875072;29;20090;-87
2023/05/21 02:27:38;;;;;;;7.60;3.42;;;16.00;97.00;;;;;;4857945;29;20061;-86
2023/05/21 02:30:06;;;;;;;5.80;3.10;;;16.00;97.10;;;;;;4860945;29;20049;-85
2023/05/21 02:32:32;;;;;;;5.78;3.40;;;15.90;97.10;;;;;;4827286;29;20178;-86
2023/05/21 02:34:59;;;;;;;4.78;3.13;;;15.90;97.10;;;;;;4860010;29;20076;-86
2023/05/21 02:37:28;;;;;;;7.20;3.65;;;15.90;97.10;;;;;;4858174;29;20045;-87
2023/05/21 02:39:54;;;;;;;6.40;3.40;;;15.90;97.20;;;;;;4843538;29;20058;-86
2023/05/21 02:42:23;;;;;;;11.02;3.83;;;15.90;97.20;;;;;;4858301;29;20045;-86
2023/05/21 02:44:52;;;;;;;6.55;3.65;;;15.80;96.90;;;;;;4842391;29;20042;-86
2023/05/21 02:47:19;;;;;;;5.85;3.20;;;15.80;97.10;;;;;;4854685;29;20041;-87
2023/05/21 02:49:45;;;;;;;6.20;3.58;;;15.80;97.20;;;;;;4855569;29;20063;-86
2023/05/21 02:52:10;;;;;;;7.38;3.88;;;15.80;97.20;;;;;;4860448;29;20097;-87
2023/05/21 02:54:36;;;;;;;6.22;3.65;;;15.80;97.00;;;;;;4856897;29;20053;-86
2023/05/21 02:57:02;;;;;;;5.72;3.25;;;15.80;97.10;;;;;;4861105;29;20076;-90
2023/05/21 02:59:28;;;;;;;6.22;3.97;;;15.70;97.10;;;;;;4847941;29;20395;-88
2023/05/21 03:01:53;;;;;;;7.28;3.85;;;15.80;97.10;;;;;;4852157;29;20494;-87
2023/05/21 03:04:21;;;;;;;6.15;3.38;;;15.70;97.00;;;;;;4844054;29;20053;-88
2023/05/21 03:06:50;;;;;;;6.30;3.95;;;15.80;97.00;;;;;;4829507;29;20092;-88
2023/05/21 03:09:16;;;;;;;6.45;3.58;;;15.70;97.00;;;;;;4849055;29;20054;-88
2023/05/21 03:11:42;;;;;;;6.78;3.90;;;15.70;97.20;;;;;;4874509;29;20442;-87
2023/05/21 03:14:08;;;;;;;6.00;3.38;;;15.70;97.10;;;;;;4858722;29;20111;-88
2023/05/21 03:16:34;;;;;;;8.73;4.00;;;15.70;97.20;;;;;;4847858;29;20050;-87
2023/05/21 03:19:00;;;;;;;7.22;3.38;;;15.60;97.30;;;;;;4849391;29;20463;-88
2023/05/21 03:21:28;;;;;;;7.97;4.57;;;15.60;97.40;;;;;;4858836;29;20055;-87
2023/05/21 03:23:57;;;;;;;7.88;4.32;;;15.60;97.50;;;;;;4852918;29;20495;-88
2023/05/21 03:26:26;;;;;;;7.40;4.13;;;15.60;97.10;;;;;;4843905;29;20101;-89
2023/05/21 03:28:52;;;;;;;7.80;4.10;;;15.60;97.20;;;;;;4849117;29;20488;-88
2023/05/21 03:31:18;;;;;;;7.97;4.55;;;15.50;97.10;;;;;;4844912;29;20042;-88
2023/05/21 03:33:43;;;;;;;9.00;4.18;;;15.50;97.10;;;;;;4838993;29;20057;-89
2023/05/21 03:36:09;;;;;;;7.70;4.70;;;15.50;97.10;;;;;;4863467;29;20041;-89
2023/05/21 03:38:34;;;;;;;6.90;4.28;;;15.50;97.10;;;;;;4851820;29;20049;-87
2023/05/21 03:41:00;;;;;;;6.25;4.25;;;15.40;97.10;;;;;;4844129;29;20097;-88
2023/05/21 03:43:25;;;;;;;6.63;4.25;;;15.40;97.20;;;;;;4844733;29;20060;-88
2023/05/21 03:45:52;;;;;;;7.65;4.10;;;15.40;97.40;;;;;;4849549;29;20428;-88
2023/05/21 03:48:17;;;;;;;9.43;4.53;;;15.40;97.50;;;;;;4861447;29;20053;-88
2023/05/21 03:50:43;;;;;;;7.18;4.07;;;15.50;97.30;;;;;;4847702;29;20494;-87
2023/05/21 03:53:09;;;;;;;7.35;3.85;;;15.40;97.40;;;;;;4851879;29;20140;-89
2023/05/21 03:55:35;;;;;;;6.57;4.07;;;15.40;97.40;;;;;;4862101;29;20060;-88
2023/05/21 03:58:01;;;;;;;7.47;4.18;;;15.40;97.60;;;;;;4856864;29;20058;-87
2023/05/21 04:00:26;;;;;;;9.82;4.78;;;15.40;97.90;;;;;;4870265;29;20042;-87
2023/05/21 04:02:52;;;;;;;5.90;3.78;;;15.40;97.60;;;;;;4842667;29;20053;-87
2023/05/21 04:05:17;;;;;;;6.88;4.60;;;15.40;97.70;;;;;;4845613;29;20054;-89
2023/05/21 04:07:45;;;;;;;7.13;4.28;;;15.40;97.80;;;;;;4844467;29;20140;-89
2023/05/21 04:10:11;;;;;;;7.85;4.20;;;15.30;97.80;;;;;;4844689;29;20061;-90
2023/05/21 04:12:36;;;;;;;10.68;4.50;;;15.30;97.80;;;;;;4845277;29;20042;-88
2023/05/21 04:15:03;;;;;;;8.18;4.55;;;15.30;97.80;;;;;;4845816;29;20402;-87
2023/05/21 04:17:28;;;;;;;6.70;4.10;;;15.30;97.60;;;;;;4846480;29;20061;-90
2023/05/21 04:19:54;;;;;;;6.97;4.10;;;15.30;97.70;;;;;;4862928;29;20447;-91
2023/05/21 04:22:22;;;;;;;7.35;4.50;;;15.30;97.90;;;;;;4858289;29;20041;-90
2023/05/21 04:24:48;;;;;;;8.02;4.63;;;15.30;97.70;;;;;;4843758;29;20050;-90
2023/05/21 04:27:15;;;;;;;6.28;3.95;;;15.30;97.60;;;;;;4832048;29;20070;-92
2023/05/21 04:29:41;;;;;;;7.47;4.03;;;15.30;97.80;;;;;;4863863;29;20436;-92
2023/05/21 04:32:07;;;;;;;7.18;4.20;;;15.30;97.90;;;;;;4870831;29;20088;-92
2023/05/21 04:34:36;;;;;;;7.47;4.57;;;15.30;97.90;;;;;;4830817;29;20046;-88
2023/05/21 04:37:02;;;;;;;9.35;4.68;;;15.30;98.00;;;;;;4825483;29;20046;-88
2023/05/21 04:39:30;;;;;;;7.25;4.25;;;15.30;97.90;;;;;;4826241;29;20114;-86
2023/05/21 04:41:56;;;;;;;7.50;4.13;;;15.30;97.90;;;;;;4825069;29;20085;-88
2023/05/21 04:44:22;;;;;;;9.40;4.70;;;15.20;97.90;;;;;;4841811;29;20072;-87
2023/05/21 04:46:49;;;;;;;7.00;4.32;;;15.20;97.60;;;;;;4850084;29;20045;-89
2023/05/21 04:49:20;;;;;;;6.90;4.43;;;15.20;97.80;;;;;;4845045;29;20046;-93
2023/05/21 04:51:46;;;;;;;9.30;4.82;;;15.20;97.90;;;;;;4851787;29;20124;-88
2023/05/21 04:54:11;;;;;;;7.82;4.53;;;15.20;97.90;;;;;;4854890;29;20460;-88
2023/05/21 04:56:37;;;;;;;11.05;5.28;;;15.20;97.90;;;;;;4841634;29;20072;-89
2023/05/21 04:59:03;;;;;;;8.73;4.35;;;15.20;97.70;;;;;;4847319;29;20045;-91
2023/05/21 05:01:31;;;;;;;9.20;4.43;;;15.10;97.80;;;;;;4868067;29;20054;-86
2023/05/21 05:03:56;;;;;;;8.85;4.00;;;15.20;97.80;;;;;;4853125;29;20057;-87
2023/05/21 05:06:24;;;;;;;10.68;4.97;;;15.10;98.00;;;;;;4860688;29;20486;-91
2023/05/21 05:08:50;;;;;;;8.93;4.50;;;15.10;97.90;;;;;;4862117;29;20045;-87
2023/05/21 05:11:16;;;;;;;7.65;4.15;;;15.10;97.80;;;;;;4842998;29;20053;-89
2023/05/21 05:13:42;;;;;;;7.40;4.82;;;15.20;97.90;;;;;;4845657;29;20052;-89
2023/05/21 05:16:08;;;;;;;8.27;4.40;;;15.20;98.10;;;;;;4855822;29;20062;-91
2023/05/21 05:18:34;;;;;;;8.07;4.57;;;15.10;98.20;;;;;;4826661;29;20388;-91
2023/05/21 05:21:00;;;;;;;10.07;4.40;;;15.20;98.10;;;;;;4825926;29;20047;-91
2023/05/21 05:23:26;;;;;;;9.82;5.25;;;15.10;98.10;;;;;;4826744;29;20130;-91
2023/05/21 05:25:51;;;;;;;7.53;4.60;;;15.10;98.10;;;;;;4825603;29;20093;-91
2023/05/21 05:28:17;;;;;;;9.95;4.35;;;15.10;98.00;;;;;;4825208;29;20043;-91
2023/05/21 05:30:43;;;;;;;10.02;4.78;;;15.10;98.10;;;;;;4825595;29;20046;-92
2023/05/21 05:33:08;;;;;;;8.63;4.00;;;15.10;97.90;;;;;;4827076;29;20446;-91
2023/05/21 05:35:35;;;;;;;7.55;4.60;;;15.10;98.00;;;;;;4826232;29;20051;-92
2023/05/21 05:38:00;;;;;;;9.23;4.55;;;15.10;98.20;;;;;;4826721;29;20046;-91
2023/05/21 05:40:26;;;;;;;8.02;4.57;;;15.20;98.20;;;;;;4825261;29;20042;-91
2023/05/21 05:42:52;;;;;;;8.25;4.35;;;15.10;98.00;;;;;;4826485;29;20415;-90
2023/05/21 05:45:18;;;;;;;7.45;4.38;;;15.10;98.00;;;;;;4856335;29;20061;-91
2023/05/21 05:47:45;;;;;;;7.50;4.13;;;15.10;98.10;;;;;;4824795;29;20046;-91
2023/05/21 05:50:11;;;;;;;7.10;4.65;;;15.10;98.00;;;;;;4825301;29;20050;-92
2023/05/21 05:52:37;;;;;;;7.32;4.40;;;15.20;98.20;;;;;;4826329;29;20134;-91
2023/05/21 05:55:03;;;;;;;8.15;4.50;;;15.20;98.20;;;;;;4825024;29;20179;-90
2023/05/21 05:57:28;;;;;;;9.00;4.55;;;15.20;98.20;;;;;;4825559;29;20039;-91
2023/05/21 05:59:55;;;;;;;7.70;3.70;;;15.20;98.10;;;;;;4825021;29;20167;-92
2023/05/21 06:02:20;;;;;;;9.73;4.72;;;15.20;98.20;;;;;;4824841;29;20062;-91
2023/05/21 06:04:46;;;;;;;10.15;4.55;;;15.20;98.20;;;;;;4824815;29;20499;-92
2023/05/21 06:07:12;;;;;;;8.32;4.43;;;15.20;98.10;;;;;;4826211;29;20050;-90
2023/05/21 06:09:37;;;;;;;6.90;4.20;;;15.30;98.10;;;;;;4823804;29;20056;-91
2023/05/21 06:12:05;;;;;;;7.05;4.20;;;15.20;98.10;;;;;;4826183;29;20042;-90
2023/05/21 06:14:30;;;;;;;7.47;4.30;;;15.20;98.20;;;;;;4824949;29;20050;-91
2023/05/21 06:16:56;;;;;;;9.63;4.40;;;15.30;98.30;;;;;;4825099;29;20062;-90
2023/05/21 06:19:22;;;;;;;8.43;4.13;;;15.30;98.20;;;;;;4825566;29;20074;-91
2023/05/21 06:21:47;;;;;;;7.72;4.25;;;15.30;98.10;;;;;;4825260;29;20437;-90
2023/05/21 06:24:13;;;;;;;8.88;4.70;;;15.30;98.20;;;;;;4824002;29;20057;-90
2023/05/21 06:26:39;;;;;;;9.80;4.43;;;15.30;98.00;;;;;;4824011;29;20050;-90
2023/05/21 06:29:04;;;;;;;7.53;4.07;;;15.40;98.00;;;;;;4824642;29;20415;-91
2023/05/21 06:31:32;;;;;;;7.93;4.32;;;15.40;98.10;;;;;;4824209;29;20403;-90
2023/05/21 06:33:58;;;;;;;8.05;4.43;;;15.40;98.00;;;;;;4825802;29;20054;-91
2023/05/21 06:36:28;;;;;;;8.90;4.00;;;15.40;98.00;;;;;;4823992;29;20049;-91
2023/05/21 06:38:57;;;;;;;7.65;4.35;;;15.40;97.90;;;;;;4823351;29;20085;-91
2023/05/21 06:41:22;;;;;;;8.32;4.30;;;15.40;97.90;;;;;;4825554;29;20128;-91
2023/05/21 06:43:48;;;;;;;8.18;3.83;;;15.40;97.80;;;;;;4824643;29;20081;-91
2023/05/21 06:46:14;;;;;;;7.13;3.80;;;15.40;97.80;;;;;;4824439;29;20054;-91
2023/05/21 06:48:39;;;;;;;5.57;3.88;;;15.50;97.90;;;;;;4824433;29;20445;-89
2023/05/21 06:51:05;;;;;;;8.02;3.95;;;15.50;97.90;;;;;;4823889;29;20109;-91
2023/05/21 06:53:30;;;;;;;7.63;3.90;;;15.50;97.90;;;;;;4824031;29;20097;-90
2023/05/21 06:55:56;;;;;;;10.77;4.28;;;15.50;97.60;;;;;;4824019;29;20072;-90
2023/05/21 06:58:22;;;;;;;7.03;3.85;;;15.50;97.50;;;;;;4823355;29;20046;-90
2023/05/21 07:00:47;;;;;;;7.50;4.20;;;15.50;97.60;;;;;;4823408;29;20055;-91
2023/05/21 07:03:14;;;;;;;8.65;4.10;;;15.50;97.70;;;;;;4823981;29;20058;-91
2023/05/21 07:05:39;;;;;;;8.75;4.00;;;15.50;97.70;;;;;;4822544;29;20099;-89
2023/05/21 07:08:05;;;;;;;6.53;3.70;;;15.60;97.60;;;;;;4854221;29;20453;-89
2023/05/21 07:10:31;;;;;;;7.30;3.90;;;15.60;97.80;;;;;;4824803;29;20049;-89
2023/05/21 07:12:56;;;;;;;9.10;4.80;;;15.60;97.80;;;;;;4824299;29;20063;-90
2023/05/21 07:15:22;;;;;;;8.00;4.05;;;15.60;97.70;;;;;;4824743;29;20042;-90
2023/05/21 07:17:47;;;;;;;8.73;4.38;;;15.60;97.60;;;;;;4824487;29;20115;-90
2023/05/21 07:20:13;;;;;;;8.65;4.30;;;15.60;97.60;;;;;;4853192;29;20080;-90
2023/05/21 07:22:40;;;;;;;9.02;4.40;;;15.70;97.60;;;;;;4823539;29;20046;-90
2023/05/21 07:25:06;;;;;;;7.78;4.18;;;15.70;97.60;;;;;;4823483;29;20046;-91
2023/05/21 07:27:31;;;;;;;7.82;4.25;;;15.70;97.70;;;;;;4822945;29;20047;-90
2023/05/21 07:29:57;;;;;;;9.65;4.13;;;15.70;97.70;;;;;;4823577;29;20091;-90
2023/05/21 07:32:22;;;;;;;10.07;4.70;;;15.70;97.60;;;;;;4823572;29;20046;-89
2023/05/21 07:34:48;;;;;;;8.00;4.03;;;15.80;97.30;;;;;;4852524;29;20114;-90
2023/05/21 07:37:14;;;;;;;8.57;4.40;;;15.80;97.40;;;;;;4824485;29;20504;-90
2023/05/21 07:39:39;;;;;;;7.00;4.15;;;15.80;97.50;;;;;;4824079;29;20130;-90
2023/05/21 07:42:05;;;;;;;8.07;4.30;;;15.80;97.80;;;;;;4823814;29;20038;-90
2023/05/21 07:44:30;;;;;;;6.65;3.58;;;15.80;97.50;;;;;;4824472;29;20054;-92
2023/05/21 07:46:57;;;;;;;9.40;4.60;;;15.90;97.20;;;;;;4824181;29;20047;-90
2023/05/21 07:49:22;;;;;;;9.02;4.45;;;15.90;97.10;;;;;;4822252;29;20081;-90
2023/05/21 07:51:48;;;;;;;9.77;4.68;;;16.00;97.10;;;;;;4823213;29;20094;-89
2023/05/21 07:54:14;;;;;;;7.80;4.28;;;16.00;97.00;;;;;;4822541;29;20129;-90
2023/05/21 07:56:39;;;;;;;7.47;4.43;;;16.00;97.00;;;;;;4824130;29;20046;-90
2023/05/21 07:59:05;;;;;;;8.32;4.03;;;16.00;97.00;;;;;;4824162;29;20058;-90
2023/05/21 08:01:31;;;;;;;6.65;4.20;;;16.10;97.10;;;;;;4822703;29;20050;-91
2023/05/21 08:04:00;;;;;;;9.10;4.63;;;16.10;97.00;;;;;;4822658;29;20074;-89
2023/05/21 08:06:26;;;;;;;9.32;4.50;;;16.20;97.00;;;;;;4824305;29;20057;-90
2023/05/21 08:08:53;;;;;;;8.18;4.50;;;16.20;97.00;;;;;;4821811;29;20059;-90
2023/05/21 08:11:18;;;;;;;9.48;5.15;;;16.30;96.90;;;;;;4824026;29;20046;-88
2023/05/21 08:13:44;;;;;;;8.18;4.30;;;16.30;96.50;;;;;;4827047;29;20044;-88
2023/05/21 08:16:10;;;;;;;10.35;4.90;;;16.30;96.50;;;;;;4825294;29;20042;-91
2023/05/21 08:18:36;;;;;;;7.65;4.47;;;16.30;96.60;;;;;;4826561;29;20049;-89
2023/05/21 08:21:01;;;;;;;7.93;4.50;;;16.40;96.50;;;;;;4826492;29;20061;-90
2023/05/21 08:23:27;;;;;;;7.88;4.43;;;16.40;96.50;;;;;;4826505;29;20397;-90
2023/05/21 08:25:52;;;;;;;9.15;4.45;;;16.50;96.60;;;;;;4826648;29;20055;-89
2023/05/21 08:28:20;;;;;;;6.63;3.63;;;16.50;96.60;;;;;;4847504;29;20037;-87
2023/05/21 08:30:46;;;;;;;8.20;4.40;;;16.60;96.70;;;;;;4837035;29;20047;-87
2023/05/21 08:33:12;;;;;;;9.95;4.53;;;16.60;96.80;;;;;;4841928;29;20043;-87
2023/05/21 08:35:38;;;;;;;8.75;4.53;;;16.70;96.70;;;;;;4843692;29;20453;-86
2023/05/21 08:38:04;;;;;;;9.73;5.13;;;16.70;96.60;;;;;;4843425;29;20042;-86
2023/05/21 08:40:30;;;;;;;8.10;4.88;;;16.80;96.60;;;;;;4847678;29;20049;-87
2023/05/21 08:42:55;;;;;;;7.15;4.20;;;16.90;96.60;;;;;;4838529;29;20074;-88
2023/05/21 08:45:22;;;;;;;9.25;4.90;;;16.90;96.50;;;;;;4836922;29;20046;-86
2023/05/21 08:47:55;;;;;;;7.65;4.82;;;17.00;96.50;;;;;;4841810;29;20061;-87
2023/05/21 08:50:25;;;;;;;11.23;5.28;;;17.00;96.30;;;;;;4843674;29;20045;-87
2023/05/21 08:52:51;;;;;;;8.57;4.80;;;17.10;96.30;;;;;;4844492;29;20128;-87
2023/05/21 08:55:17;;;;;;;7.60;4.63;;;17.10;96.00;;;;;;4831742;29;20455;-88
2023/05/21 08:57:43;;;;;;;8.75;4.72;;;17.20;96.10;;;;;;4847064;29;20386;-88
2023/05/21 09:00:10;;;;;;;9.65;5.13;;;17.20;96.20;;;;;;4844830;29;20479;-88
2023/05/21 09:02:39;;;;;;;9.82;5.18;;;17.30;96.00;;;;;;4842053;29;20058;-88
2023/05/21 09:05:08;;;;;;;9.77;5.00;;;17.40;95.70;;;;;;4842253;29;20061;-93
2023/05/21 09:07:47;;;;;;;10.68;4.88;;;17.40;95.60;;;;;;4840934;29;20129;-90
2023/05/21 09:10:13;;;;;;;8.13;4.40;;;17.50;95.80;;;;;;4843156;29;20058;-88
2023/05/21 09:12:39;;;;;;;8.20;4.65;;;17.50;96.00;;;;;;4842829;29;20042;-87
2023/05/21 09:15:05;;;;;;;9.90;4.80;;;17.60;95.90;;;;;;4838405;29;20110;-86
2023/05/21 09:17:31;;;;;;;9.38;5.35;;;17.60;95.80;;;;;;4842637;29;20050;-86
2023/05/21 09:20:14;;;;;;;9.85;5.10;;;17.60;95.70;;;;;;4837963;29;20452;-87
2023/05/21 09:22:48;;;;;;;11.05;5.43;;;17.70;95.60;;;;;;4842470;29;20069;-86
2023/05/21 09:25:20;;;;;;;24.45;5.43;;;17.70;95.50;;;;;;4842662;29;20050;-85
2023/05/21 09:27:46;;;;;;;14.07;5.43;;;17.80;95.70;;;;;;4840961;29;20053;-87
2023/05/21 09:30:14;;;;;;;12.70;5.30;;;17.80;95.50;;;;;;4857475;29;20064;-85
2023/05/21 09:32:40;;;;;;;12.43;5.30;;;17.90;95.50;;;;;;4842038;29;20048;-87
2023/05/21 09:35:24;;;;;;;15.25;5.40;;;17.90;95.20;;;;;;4842187;29;20050;-87
2023/05/21 09:37:52;;;;;;;10.63;5.15;;;18.00;95.10;;;;;;4843387;29;20058;-88
2023/05/21 09:40:19;;;;;;;12.18;5.40;;;18.10;95.30;;;;;;4842957;29;20045;-86
2023/05/21 09:42:51;;;;;;;11.02;5.28;;;18.10;95.20;;;;;;4852748;29;20041;-85
2023/05/21 09:45:24;;;;;;;9.30;4.72;;;18.20;94.90;;;;;;4846177;29;20045;-86
2023/05/21 09:47:51;;;;;;;9.00;4.72;;;18.20;94.50;;;;;;4824470;29;20049;-86
2023/05/21 09:50:19;;;;;;;15.90;5.30;;;18.20;94.70;;;;;;4843660;29;20081;-83
2023/05/21 09:52:45;;;;;;;9.75;5.00;;;18.30;94.80;;;;;;4843820;29;20042;-84
2023/05/21 09:55:12;;;;;;;8.60;4.65;;;18.30;94.90;;;;;;4841616;29;20052;-86
2023/05/21 09:57:42;;;;;;;8.90;4.72;;;18.40;95.00;;;;;;4843428;29;20053;-86
2023/05/21 10:00:16;;;;;;;11.38;4.85;;;18.50;95.00;;;;;;4843381;29;20062;-86
2023/05/21 10:02:45;;;;;;;11.30;5.00;;;18.50;94.60;;;;;;4842229;29;20061;-87
2023/05/21 10:05:12;;;;;;;8.30;4.30;;;18.60;94.50;;;;;;4841953;29;20441;-85
2023/05/21 10:07:41;;;;;;;12.05;4.72;;;18.70;94.70;;;;;;4841999;29;20407;-86
2023/05/21 10:10:11;;;;;;;10.02;4.95;;;18.70;95.00;;;;;;4841777;29;20503;-86
2023/05/21 10:12:40;;;;;;;10.75;4.90;;;18.70;94.40;;;;;;4841723;29;20136;-85
2023/05/21 10:15:12;;;;;;;10.95;4.90;;;18.80;94.40;;;;;;4841338;29;20161;-86
2023/05/21 10:17:39;;;;;;;7.65;4.50;;;18.80;94.30;;;;;;4841898;29;21194;-85
2023/05/21 10:20:07;;;;;;;9.60;4.40;;;18.90;94.20;;;;;;4843249;29;20056;-86
2023/05/21 10:22:34;;;;;;;8.57;4.57;;;18.90;94.30;;;;;;4842262;29;20046;-86
2023/05/21 10:25:02;;;;;;;7.18;4.50;;;19.00;94.60;;;;;;4843072;29;20514;-86
2023/05/21 10:27:29;;;;;;;10.00;4.47;;;19.00;94.70;;;;;;4843144;29;20543;-86
2023/05/21 10:29:56;;;;;;;8.65;4.45;;;19.10;95.00;;;;;;4840605;29;20045;-85
2023/05/21 10:32:25;;;;;;;9.73;4.88;;;19.20;94.90;;;;;;4842038;29;20087;-86
2023/05/21 10:34:55;;;;;;;7.65;4.70;;;19.20;94.70;;;;;;4840629;29;20479;-86
2023/05/21 10:37:25;;;;;;;7.68;5.00;;;19.30;94.70;;;;;;4864777;29;20093;-86
2023/05/21 10:39:51;;;;;;;10.20;4.35;;;19.40;94.60;;;;;;4845231;29;20054;-86
2023/05/21 10:42:22;;;;;;;10.73;4.45;;;19.50;94.90;;;;;;4847801;29;20069;-86
2023/05/21 10:45:07;;;;;;;10.45;5.13;;;19.50;95.00;;;;;;4840514;29;20053;-86
2023/05/21 10:47:47;;;;;;;6.80;4.38;;;19.60;94.70;;;;;;4841111;29;20479;-85
2023/05/21 10:50:28;;;;;;;7.78;4.70;;;19.60;94.60;;;;;;4841831;29;20614;-86
2023/05/21 10:53:12;;;;;;;8.43;4.60;;;19.70;94.20;;;;;;4841441;29;20054;-85
2023/05/21 10:56:16;;;;;;;11.10;5.07;;;19.80;94.70;;;;;;4856857;29;20053;-86
2023/05/21 10:59:01;;;;;;;7.60;4.82;;;19.90;94.00;;;;;;4830324;29;20069;-85
2023/05/21 11:01:35;;;;;;;10.32;4.65;;;19.90;94.10;;;;;;4842829;29;20181;-85
2023/05/21 11:04:01;;;;;;;9.15;5.05;;;19.90;92.70;;;;;;4840333;29;20117;-86
2023/05/21 11:06:27;;;;;;;8.38;4.85;;;20.00;92.90;;;;;;4856915;29;20121;-84
2023/05/21 11:08:53;;;;;;;7.95;4.93;;;20.10;93.00;;;;;;4842059;29;20049;-86
2023/05/21 11:11:45;;;;;;;9.00;5.03;;;20.10;93.70;;;;;;4841640;29;20105;-85
2023/05/21 11:14:55;;;;;;;9.60;5.13;;;20.20;93.50;;;;;;4841476;29;20080;-86
2023/05/21 11:17:40;;;;;;;10.38;5.70;;;20.30;93.10;;;;;;4842496;29;20524;-86
2023/05/21 11:20:12;;;;;;;9.15;5.72;;;20.30;93.20;;;;;;4855889;29;20054;-86
2023/05/21 11:22:38;;;;;;;13.25;6.20;;;20.40;93.10;;;;;;4842369;29;20041;-85
2023/05/21 11:25:05;;;;;;;9.70;5.30;;;20.50;93.20;;;;;;4841751;29;20133;-86
2023/05/21 11:27:39;;;;;;;10.35;5.43;;;20.50;93.70;;;;;;4840978;29;20046;-84
2023/05/21 11:30:09;;;;;;;7.57;4.88;;;20.60;93.90;;;;;;4840879;29;20049;-86
2023/05/21 11:32:39;;;;;;;9.35;5.75;;;20.60;93.80;;;;;;4841221;29;20050;-86
2023/05/21 11:35:06;;;;;;;10.32;6.63;;;20.70;93.20;;;;;;4842465;29;20061;-85
2023/05/21 11:37:33;;;;;;;9.48;6.38;;;20.70;92.50;;;;;;4840997;29;20082;-85
2023/05/21 11:40:24;;;;;;;10.07;5.45;;;20.80;92.80;;;;;;4840486;29;20065;-85
2023/05/21 11:42:52;;;;;;;14.27;7.13;;;20.80;93.30;;;;;;4840962;29;20403;-85
2023/05/21 11:45:19;;;;;;;9.50;5.80;;;20.80;93.10;;;;;;4841271;29;20125;-86
2023/05/21 11:47:47;;;;;;;10.77;6.30;;;20.90;93.80;;;;;;4843598;29;20097;-85
2023/05/21 11:50:13;;;;;;;8.98;5.90;;;21.00;93.90;;;;;;4844699;29;20177;-85
2023/05/21 11:52:40;;;;;;;11.60;7.03;;;21.10;94.00;;;;;;4845626;29;20094;-85
2023/05/21 11:55:07;;;;;;;8.68;5.65;;;21.10;92.20;;;;;;4844998;29;20049;-86
2023/05/21 11:57:32;;;;;;;9.60;6.35;;;21.20;93.30;;;;;;4844471;29;20503;-85
2023/05/21 12:00:00;;;;;;;10.63;5.97;;;21.20;93.50;;;;;;4844617;29;20054;-86
2023/05/21 12:02:29;;;;;;;11.48;6.05;;;21.30;93.60;;;;;;4843576;29;20042;-86
2023/05/21 12:04:59;;;;;;;11.80;7.70;;;21.30;93.60;;;;;;4844089;29;20054;-86
2023/05/21 12:07:30;;;;;;;13.07;8.18;;;21.40;93.10;;;;;;4843733;29;20054;-85
2023/05/21 12:09:56;;;;;;;10.07;6.63;;;21.40;92.30;;;;;;4844166;29;20057;-86
2023/05/21 12:12:24;;;;;;;11.88;7.07;;;21.50;93.00;;;;;;4844405;29;20529;-85
2023/05/21 12:14:51;;;;;;;12.75;8.25;;;21.50;93.00;;;;;;4843424;29;20101;-86
2023/05/21 12:17:19;;;;;;;11.55;8.15;;;21.50;92.70;;;;;;4844444;29;20141;-86
2023/05/21 12:19:46;;;;;;;10.27;7.82;;;21.60;92.80;;;;;;4844067;29;20136;-85
2023/05/21 12:22:12;;;;;;;14.00;8.43;;;21.70;93.10;;;;;;4844624;29;20046;-86
2023/05/21 12:24:38;;;;;;;12.70;7.93;;;21.70;92.30;;;;;;4859540;29;20456;-86
2023/05/21 12:27:09;;;;;;;13.02;8.80;;;21.80;92.70;;;;;;4845196;29;20064;-86
2023/05/21 12:29:42;;;;;;;15.25;8.98;;;21.80;92.50;;;;;;4843009;29;20046;-86
2023/05/21 12:32:11;;;;;;;11.88;8.48;;;21.90;92.60;;;;;;4859341;29;20102;-86
2023/05/21 12:34:48;;;;;;;11.10;7.80;;;21.90;93.00;;;;;;4844942;29;20060;-86
2023/05/21 12:37:24;;;;;;;13.07;9.15;;;22.00;93.70;;;;;;4843374;29;20124;-86
2023/05/21 12:39:54;;;;;;;11.43;8.52;;;22.10;92.60;;;;;;4844859;29;20049;-85
2023/05/21 12:42:29;;;;;;;11.98;8.60;;;22.10;93.50;;;;;;4859605;29;20064;-85
2023/05/21 12:44:55;;;;;;;13.48;8.13;;;22.20;93.80;;;;;;4846771;29;20057;-87
2023/05/21 12:47:25;;;;;;;13.60;8.55;;;22.20;94.10;;;;;;4851508;29;20057;-87
2023/05/21 12:49:56;;;;;;;10.30;8.10;;;22.30;93.80;;;;;;4843154;29;20114;-87